Livonia, Indiana
Current Conditions -  °F | °C
As of 7:53 PM on Sunday 23 Nov 2014 (Local Time) from KBMG Reporting Station
Moderate Rain Moderate Rain  
Wind Chill: 52°   Ceiling: 900
Heat Index: 52°   Visibility: 4mi
Dew Point: 52°   Wind: 12mph
Humidity: 100%   Direction: 140°SE
Pressure: 29.31"   Gusts: NA
Location:  38.6761°N, 86.2279°W
Report Text: KBMG 240053Z 14010KT 4SM RA BR FEW005 BKN009 OVC014 11/11 A2931 RMK AO2 SLP923 P0024 T01110111
Loading
Personal Weather Stations






























Interactive Weather Map New forecast layout! Learn more

10-Day Weather Forecast

Advertisements
Track Severe Weather on mobile